createdAt,value
2023-03-04T00:01:47.085Z,8.75
2023-03-04T00:03:52.300Z,9.52
2023-03-04T00:06:55.824Z,8.93
2023-03-04T00:13:35.318Z,8.80
2023-03-04T00:17:04.140Z,8.02
2023-03-04T00:19:56.160Z,8.00
2023-03-04T00:22:48.698Z,8.43
2023-03-04T00:25:34.420Z,7.97
2023-03-04T00:29:22.042Z,8.38
2023-03-04T00:32:48.782Z,7.93
2023-03-04T00:35:49.614Z,8.25
2023-03-04T00:39:22.598Z,8.52
2023-03-04T00:43:23.541Z,8.10
2023-03-04T00:46:17.746Z,7.50
2023-03-04T00:54:59.940Z,10.40
2023-03-04T00:58:04.786Z,10.27
2023-03-04T01:00:58.933Z,9.80
2023-03-04T01:03:48.439Z,10.23
2023-03-04T01:11:14.339Z,9.90
2023-03-04T01:15:16.364Z,11.85
2023-03-04T01:21:50.155Z,11.32
2023-03-04T01:30:24.813Z,12.85
2023-03-04T01:34:17.360Z,13.35
2023-03-04T01:40:13.893Z,13.60
2023-03-04T01:42:49.941Z,13.90
2023-03-04T01:46:44.993Z,13.32
2023-03-04T01:49:24.743Z,12.45
2023-03-04T01:52:21.620Z,13.07
2023-03-04T01:55:50.594Z,11.68
2023-03-04T01:59:25.858Z,11.93
2023-03-04T02:02:27.848Z,12.45
2023-03-04T02:05:39.655Z,12.73
2023-03-04T02:08:37.823Z,13.18
2023-03-04T02:12:23.968Z,12.75
2023-03-04T02:15:00.375Z,12.75
2023-03-04T02:22:50.109Z,12.82
2023-03-04T02:26:19.923Z,12.45
2023-03-04T02:29:43.423Z,11.98
2023-03-04T02:37:09.441Z,12.35
2023-03-04T02:40:12.332Z,13.07
2023-03-04T02:51:55.890Z,12.27
2023-03-04T02:55:13.775Z,12.23
2023-03-04T02:59:05.811Z,11.85
2023-03-04T03:01:54.649Z,12.32
2023-03-04T03:06:36.091Z,12.05
2023-03-04T03:10:05.618Z,12.77
2023-03-04T03:14:06.105Z,13.32
2023-03-04T03:17:31.820Z,13.02
2023-03-04T03:20:21.299Z,13.18
2023-03-04T03:24:11.351Z,14.18
2023-03-04T03:27:36.108Z,14.68
2023-03-04T03:30:17.844Z,15.02
2023-03-04T03:33:13.216Z,15.48
2023-03-04T03:36:44.988Z,14.65
2023-03-04T03:39:46.850Z,15.38
2023-03-04T03:42:24.852Z,13.82
2023-03-04T03:59:27.181Z,16.08
2023-03-04T04:15:25.769Z,15.80
2023-03-04T04:18:48.638Z,15.23
2023-03-04T04:22:40.697Z,15.60
2023-03-04T04:25:29.045Z,16.70
2023-03-04T04:40:45.002Z,16.55
2023-03-04T04:43:58.218Z,16.45
2023-03-04T04:46:26.561Z,15.98
2023-03-04T04:48:54.163Z,16.30
2023-03-04T04:51:21.976Z,17.00
2023-03-04T04:53:49.540Z,17.02
2023-03-04T04:56:19.932Z,16.98
2023-03-04T04:58:48.488Z,16.58
2023-03-04T05:01:16.758Z,16.83
2023-03-04T05:03:44.720Z,16.52
2023-03-04T05:06:13.427Z,17.05
2023-03-04T05:08:41.030Z,16.40
2023-03-04T05:11:09.301Z,16.52
2023-03-04T05:13:36.754Z,16.40
2023-03-04T05:16:05.052Z,16.48
2023-03-04T05:18:32.982Z,16.98
2023-03-04T05:21:02.426Z,17.20
2023-03-04T05:23:32.846Z,16.63
2023-03-04T05:26:01.313Z,18.08
2023-03-04T05:28:29.212Z,16.48
2023-03-04T05:30:56.940Z,17.58
2023-03-04T05:33:24.420Z,17.40
2023-03-04T05:35:52.320Z,17.60
2023-03-04T05:38:20.337Z,18.05
2023-03-04T05:40:48.630Z,17.52
2023-03-04T05:43:17.356Z,16.15
2023-03-04T05:45:44.880Z,17.25
2023-03-04T05:48:12.353Z,15.82
2023-03-04T05:50:39.960Z,16.65
2023-03-04T05:53:07.535Z,16.73
2023-03-04T05:55:35.047Z,18.48
2023-03-04T05:58:02.696Z,17.38
2023-03-04T06:00:30.449Z,18.77
2023-03-04T06:02:59.017Z,20.83
2023-03-04T06:05:26.690Z,19.25
2023-03-04T06:07:54.380Z,20.58
2023-03-04T06:10:21.986Z,22.20
2023-03-04T06:12:49.443Z,22.20
2023-03-04T06:15:17.446Z,20.70
2023-03-04T06:17:47.035Z,21.27
2023-03-04T06:20:14.561Z,20.23
2023-03-04T06:22:42.189Z,19.73
2023-03-04T06:25:10.869Z,19.77
2023-03-04T06:27:38.360Z,19.20
2023-03-04T06:30:06.822Z,21.48
2023-03-04T06:32:34.479Z,21.52
2023-03-04T06:35:02.036Z,21.95
2023-03-04T06:37:29.552Z,20.92
2023-03-04T06:39:57.517Z,21.50
2023-03-04T06:42:25.121Z,20.02
2023-03-04T06:44:53.904Z,20.48
2023-03-04T06:47:21.655Z,22.02
2023-03-04T06:49:50.377Z,22.38
2023-03-04T06:52:18.203Z,21.65
2023-03-04T06:54:50.061Z,21.27
2023-03-04T06:57:17.851Z,19.55
2023-03-04T06:59:46.532Z,19.70
2023-03-04T07:02:14.127Z,20.30
2023-03-04T07:04:41.867Z,20.00
2023-03-04T07:07:10.746Z,20.23
2023-03-04T07:09:38.813Z,21.02
2023-03-04T07:12:06.564Z,20.40
2023-03-04T07:14:34.155Z,19.50
2023-03-04T07:17:32.480Z,20.50
2023-03-04T07:20:13.160Z,20.83
2023-03-04T07:22:45.132Z,18.40
2023-03-04T07:25:19.245Z,18.67
2023-03-04T07:27:53.494Z,17.50
2023-03-04T07:30:25.042Z,18.55
2023-03-04T07:33:07.493Z,17.63
2023-03-04T07:35:50.999Z,18.98
2023-03-04T07:38:26.312Z,17.85
2023-03-04T07:52:16.846Z,16.58
2023-03-04T08:05:18.010Z,14.45
2023-03-04T08:08:36.453Z,15.05
2023-03-04T09:06:24.492Z,11.52
2023-03-04T09:08:52.193Z,11.95
2023-03-04T09:11:19.944Z,12.07
2023-03-04T09:13:47.702Z,11.93
2023-03-04T09:16:15.496Z,11.02
2023-03-04T09:18:45.568Z,12.13
2023-03-04T09:21:13.114Z,11.50
2023-03-04T09:23:40.908Z,11.70
2023-03-04T09:26:20.906Z,11.43
2023-03-04T09:28:57.522Z,12.23
2023-03-04T09:31:26.861Z,12.32
2023-03-04T09:33:59.194Z,11.68
2023-03-04T09:36:27.022Z,12.00
2023-03-04T09:38:54.748Z,12.48
2023-03-04T09:41:29.699Z,12.50
2023-03-04T09:46:35.653Z,11.80
2023-03-04T09:49:07.096Z,11.40
2023-03-04T09:51:43.901Z,12.50
2023-03-04T09:54:46.157Z,11.85
2023-03-04T09:57:37.299Z,11.85
2023-03-04T10:00:20.364Z,12.82
2023-03-04T10:03:12.564Z,11.80
2023-03-04T10:05:53.386Z,11.43
2023-03-04T10:08:46.688Z,10.88
2023-03-04T10:11:24.818Z,11.57
2023-03-04T10:14:08.325Z,11.23
2023-03-04T10:16:42.789Z,11.50
2023-03-04T10:19:24.181Z,11.48
2023-03-04T10:21:52.152Z,10.93
2023-03-04T10:24:23.619Z,11.70
2023-03-04T10:26:54.109Z,11.65
2023-03-04T10:29:24.778Z,12.20
2023-03-04T10:31:52.880Z,12.60
2023-03-04T10:34:20.481Z,11.30
2023-03-04T10:37:00.882Z,12.43
2023-03-04T10:39:29.906Z,12.10
2023-03-04T10:41:59.101Z,12.82
2023-03-04T10:44:31.725Z,13.52
2023-03-04T10:46:59.811Z,13.13
2023-03-04T10:49:29.208Z,13.48
2023-03-04T10:52:15.868Z,14.07
2023-03-04T10:55:14.821Z,14.38
2023-03-04T10:57:45.034Z,13.13
2023-03-04T11:00:18.322Z,14.70
2023-03-04T11:02:51.180Z,14.02
2023-03-04T11:05:22.107Z,14.65
2023-03-04T11:07:56.718Z,14.55
2023-03-04T11:13:16.561Z,15.82
2023-03-04T11:16:01.158Z,16.25
2023-03-04T11:18:43.689Z,15.00
2023-03-04T11:21:18.510Z,15.02
2023-03-04T11:24:28.125Z,16.23
2023-03-04T11:27:24.012Z,15.43
2023-03-04T11:30:19.798Z,16.23
2023-03-04T11:32:50.939Z,15.27
2023-03-04T11:36:04.038Z,15.75
2023-03-04T11:38:36.768Z,16.05
2023-03-04T11:41:16.841Z,15.95
2023-03-04T11:43:49.533Z,16.35
2023-03-04T11:46:26.130Z,16.60
2023-03-04T11:49:24.593Z,15.30
2023-03-04T11:52:29.165Z,15.40
2023-03-04T11:55:08.471Z,15.63
2023-03-04T11:57:55.771Z,15.60
2023-03-04T12:01:01.937Z,15.07
2023-03-04T12:03:50.856Z,14.48
2023-03-04T12:06:43.415Z,15.63
2023-03-04T12:09:31.940Z,15.32
2023-03-04T12:12:27.107Z,14.38
2023-03-04T12:20:24.452Z,14.80
2023-03-04T12:25:39.892Z,14.52
2023-03-04T12:28:38.105Z,15.60
2023-03-04T12:31:19.032Z,14.57
2023-03-04T12:34:10.252Z,14.63
2023-03-04T12:36:49.699Z,15.68
2023-03-04T12:39:29.064Z,15.10
2023-03-04T12:42:08.428Z,14.20
2023-03-04T12:44:46.589Z,14.05
2023-03-04T12:47:27.715Z,14.13
2023-03-04T12:49:55.126Z,13.95
2023-03-04T12:52:37.597Z,14.40
2023-03-04T12:55:11.413Z,15.30
2023-03-04T12:57:40.608Z,15.32
2023-03-04T13:00:17.268Z,15.95
2023-03-04T13:03:12.316Z,15.93
2023-03-04T13:05:51.675Z,15.93
2023-03-04T13:08:37.538Z,16.73
2023-03-04T13:14:06.241Z,15.77
2023-03-04T13:16:44.286Z,15.98
2023-03-04T13:19:42.493Z,16.45
2023-03-04T13:22:28.382Z,16.08
2023-03-04T13:24:58.181Z,16.00
2023-03-04T13:27:48.844Z,15.93
2023-03-04T13:33:26.399Z,15.23
2023-03-04T13:36:00.142Z,16.20
2023-03-04T13:38:28.049Z,16.23
2023-03-04T13:41:15.321Z,16.70
2023-03-04T13:43:52.136Z,15.90
2023-03-04T13:46:19.573Z,16.02
2023-03-04T13:49:01.871Z,16.48
2023-03-04T13:51:46.622Z,16.00
2023-03-04T13:54:21.868Z,15.45
2023-03-04T13:57:21.623Z,15.85
2023-03-04T13:59:55.123Z,16.48
2023-03-04T14:02:26.250Z,16.27
2023-03-04T14:04:53.830Z,16.25
2023-03-04T14:07:26.218Z,15.85
2023-03-04T14:10:05.296Z,16.10
2023-03-04T14:12:35.718Z,16.13
2023-03-04T14:15:16.240Z,16.17
2023-03-04T14:17:58.037Z,17.20
2023-03-04T14:20:38.578Z,16.23
2023-03-04T14:23:33.576Z,15.95
2023-03-04T14:26:17.789Z,16.23
2023-03-04T14:28:48.434Z,14.93
2023-03-04T14:31:21.822Z,16.85
2023-03-04T14:33:59.760Z,16.30
2023-03-04T14:36:29.876Z,16.90
2023-03-04T14:39:00.839Z,17.38
2023-03-04T14:41:34.305Z,17.33
2023-03-04T14:44:25.490Z,17.63
2023-03-04T14:47:07.629Z,17.38
2023-03-04T14:49:37.187Z,17.08
2023-03-04T14:52:05.726Z,17.02
2023-03-04T14:54:39.141Z,17.75
2023-03-04T14:57:30.139Z,17.77
2023-03-04T15:00:13.716Z,18.10
2023-03-04T15:02:41.810Z,27.33
2023-03-04T15:05:17.722Z,16.48
2023-03-04T15:07:51.799Z,17.15
2023-03-04T15:10:26.922Z,16.45
2023-03-04T15:12:56.832Z,16.77
2023-03-04T15:15:31.375Z,17.10
2023-03-04T15:18:26.360Z,17.07
2023-03-04T15:21:01.886Z,16.92
2023-03-04T15:26:01.779Z,16.92
2023-03-04T15:28:37.997Z,18.45
2023-03-04T15:31:06.988Z,17.50
2023-03-04T15:33:34.400Z,18.05
2023-03-04T15:36:03.581Z,16.85
2023-03-04T15:38:31.205Z,17.60
2023-03-04T15:40:59.747Z,17.30
2023-03-04T15:43:27.354Z,16.38
2023-03-04T15:45:54.923Z,18.33
2023-03-04T15:48:22.524Z,17.23
2023-03-04T15:50:58.562Z,16.25
2023-03-04T15:54:00.174Z,16.60
2023-03-04T15:56:31.180Z,15.68
2023-03-04T15:59:11.047Z,16.15
2023-03-04T16:01:38.833Z,16.92
2023-03-04T16:04:06.656Z,16.67
2023-03-04T16:06:34.161Z,17.55
2023-03-04T16:09:01.628Z,16.73
2023-03-04T16:11:32.713Z,17.08
2023-03-04T16:14:00.267Z,18.52
2023-03-04T16:16:27.683Z,18.33
2023-03-04T16:18:55.237Z,17.92
2023-03-04T16:21:26.202Z,18.30
2023-03-04T16:23:54.794Z,17.55
2023-03-04T16:26:25.918Z,17.42
2023-03-04T16:28:54.350Z,17.58
2023-03-04T16:31:22.818Z,18.30
2023-03-04T16:33:50.391Z,18.20
2023-03-04T16:36:26.960Z,17.52
2023-03-04T16:39:02.822Z,17.50
2023-03-04T16:41:35.903Z,18.55
2023-03-04T16:44:03.616Z,18.23
2023-03-04T16:46:31.239Z,18.13
2023-03-04T16:48:58.736Z,17.92
2023-03-04T16:51:26.311Z,17.88
2023-03-04T16:53:56.929Z,18.60
2023-03-04T16:56:24.368Z,19.00
2023-03-04T16:58:54.238Z,17.98
2023-03-04T17:01:28.605Z,19.58
2023-03-04T17:04:04.185Z,20.15
2023-03-04T17:09:01.797Z,20.67
2023-03-04T17:11:29.321Z,19.65
2023-03-04T17:14:00.749Z,21.45
2023-03-04T17:16:28.784Z,22.05
2023-03-04T17:18:56.486Z,33.13
2023-03-04T17:21:27.504Z,58.47
2023-03-04T17:23:55.015Z,47.25
2023-03-04T17:26:23.100Z,43.63
2023-03-04T17:28:50.950Z,31.73
2023-03-04T17:31:20.766Z,32.83
2023-03-04T17:33:49.141Z,27.13
2023-03-04T17:36:19.296Z,27.63
2023-03-04T17:38:47.381Z,25.25
2023-03-04T17:41:18.307Z,24.50
2023-03-04T17:43:47.911Z,24.10
2023-03-04T17:46:17.172Z,33.58
2023-03-04T17:48:44.715Z,35.78
2023-03-04T17:51:12.396Z,36.00
2023-03-04T17:53:40.153Z,34.53
2023-03-04T17:56:13.838Z,33.70
2023-03-04T17:58:45.597Z,32.38
2023-03-04T18:01:21.097Z,31.88
2023-03-04T18:04:09.533Z,29.58
2023-03-04T18:07:58.712Z,29.75
2023-03-04T18:11:11.263Z,27.92
2023-03-04T18:13:39.385Z,29.13
2023-03-04T18:16:09.089Z,28.60
2023-03-04T18:18:36.740Z,29.88
2023-03-04T18:21:04.897Z,29.90
2023-03-04T18:23:33.034Z,29.95
2023-03-04T18:26:01.818Z,29.95
2023-03-04T18:28:32.385Z,31.20
2023-03-04T18:31:01.240Z,31.70
2023-03-04T18:33:32.995Z,31.00
2023-03-04T18:36:09.076Z,31.42
2023-03-04T18:38:57.347Z,30.95
2023-03-04T18:41:35.395Z,30.42
2023-03-04T18:44:03.312Z,30.90
2023-03-04T18:46:45.466Z,33.30
2023-03-04T18:49:15.208Z,32.97
2023-03-04T18:51:42.808Z,33.60
2023-03-04T18:54:10.358Z,32.28
2023-03-04T18:56:46.784Z,31.23
2023-03-04T18:59:43.124Z,32.20
2023-03-04T22:58:12.358Z,35.42
2023-03-04T23:00:41.539Z,33.80
2023-03-04T23:51:07.228Z,38.28
2023-03-04T23:54:27.417Z,36.28
2023-03-04T23:57:25.371Z,37.35
